createdAt,value
2023-03-07T00:01:08.614Z,60.11
2023-03-07T00:04:11.388Z,59.91
2023-03-07T00:07:15.221Z,59.60
2023-03-07T00:10:18.481Z,59.84
2023-03-07T00:13:21.052Z,59.73
2023-03-07T00:16:26.358Z,60.11
2023-03-07T00:19:28.876Z,59.82
2023-03-07T00:22:31.392Z,60.03
2023-03-07T00:25:34.160Z,59.87
2023-03-07T00:28:36.578Z,60.18
2023-03-07T00:31:40.446Z,59.90
2023-03-07T00:34:42.992Z,59.66
2023-03-07T00:37:45.646Z,59.83
2023-03-07T00:40:48.522Z,60.11
2023-03-07T00:43:51.477Z,59.56
2023-03-07T00:46:55.352Z,59.83
2023-03-07T00:49:57.956Z,59.78
2023-03-07T00:53:00.677Z,59.70
2023-03-07T00:56:05.593Z,59.72
2023-03-07T00:59:08.453Z,59.68
2023-03-07T01:02:12.328Z,59.95
2023-03-07T01:05:14.860Z,59.88
2023-03-07T01:08:20.511Z,59.82
2023-03-07T01:11:23.250Z,59.41
2023-03-07T01:14:25.653Z,59.79
2023-03-07T01:17:29.427Z,60.08
2023-03-07T01:20:34.267Z,59.82
2023-03-07T01:23:36.817Z,59.91
2023-03-07T01:26:40.574Z,59.79
2023-03-07T01:29:42.907Z,59.84
2023-03-07T01:32:48.870Z,59.82
2023-03-07T01:35:51.541Z,59.89
2023-03-07T01:38:55.975Z,59.90
2023-03-07T01:41:58.475Z,59.82
2023-03-07T01:45:06.097Z,59.86
2023-03-07T01:48:10.038Z,59.76
2023-03-07T01:51:12.519Z,59.62
2023-03-07T01:54:19.163Z,59.95
2023-03-07T01:57:24.291Z,59.66
2023-03-07T02:00:29.811Z,59.68
2023-03-07T02:03:37.684Z,59.64
2023-03-07T02:06:41.732Z,59.45
2023-03-07T02:09:45.878Z,59.45
2023-03-07T02:12:49.256Z,59.58
2023-03-07T02:15:52.670Z,59.58
2023-03-07T02:18:56.788Z,59.47
2023-03-07T02:22:09.885Z,59.61
2023-03-07T02:25:19.494Z,59.33
2023-03-07T02:28:23.932Z,59.85
2023-03-07T02:31:27.091Z,59.47
2023-03-07T02:34:31.691Z,59.51
2023-03-07T02:37:38.124Z,59.49
2023-03-07T02:40:40.880Z,59.52
2023-03-07T02:43:44.641Z,59.68
2023-03-07T02:46:46.998Z,59.78
2023-03-07T02:49:50.878Z,59.75
2023-03-07T02:52:53.969Z,59.36
2023-03-07T02:55:58.318Z,59.55
2023-03-07T02:59:02.316Z,59.77
2023-03-07T03:02:05.158Z,59.58
2023-03-07T03:05:08.494Z,59.59
2023-03-07T03:08:12.642Z,59.56
2023-03-07T03:11:15.075Z,59.38
2023-03-07T03:14:18.974Z,59.44
2023-03-07T03:17:21.480Z,59.67
2023-03-07T03:20:25.420Z,59.33
2023-03-07T03:23:29.480Z,59.27
2023-03-07T03:26:31.995Z,59.05
2023-03-07T03:29:36.147Z,59.29
2023-03-07T03:32:39.536Z,59.18
2023-03-07T03:35:43.591Z,59.36
2023-03-07T03:38:46.261Z,59.29
2023-03-07T03:41:48.942Z,58.92
2023-03-07T03:44:52.964Z,59.29
2023-03-07T03:47:55.410Z,58.78
2023-03-07T03:51:02.426Z,59.23
2023-03-07T03:54:05.068Z,58.97
2023-03-07T03:57:07.912Z,58.77
2023-03-07T04:00:14.905Z,58.92
2023-03-07T04:03:17.535Z,59.11
2023-03-07T04:06:22.084Z,59.17
2023-03-07T04:09:24.576Z,58.90
2023-03-07T04:12:27.624Z,59.19
2023-03-07T04:15:31.788Z,59.36
2023-03-07T04:18:35.682Z,59.37
2023-03-07T04:21:38.141Z,58.98
2023-03-07T04:24:40.628Z,59.05
2023-03-07T04:27:43.194Z,59.08
2023-03-07T04:30:47.086Z,59.04
2023-03-07T04:33:50.643Z,59.09
2023-03-07T04:36:53.103Z,59.07
2023-03-07T04:39:55.956Z,59.19
2023-03-07T04:42:58.876Z,59.04
2023-03-07T04:46:03.196Z,59.05
2023-03-07T04:49:05.992Z,59.04
2023-03-07T04:52:08.626Z,58.89
2023-03-07T04:55:11.595Z,59.03
2023-03-07T04:58:15.081Z,58.96
2023-03-07T05:01:19.377Z,58.84
2023-03-07T05:04:22.036Z,59.18
2023-03-07T05:07:25.777Z,58.85
2023-03-07T05:10:28.176Z,58.95
2023-03-07T05:13:30.895Z,58.63
2023-03-07T05:16:35.156Z,58.58
2023-03-07T05:19:37.660Z,58.71
2023-03-07T05:22:40.201Z,58.58
2023-03-07T05:25:43.633Z,58.77
2023-03-07T05:28:47.148Z,58.70
2023-03-07T05:31:51.257Z,58.54
2023-03-07T05:34:54.145Z,58.83
2023-03-07T05:37:56.854Z,58.74
2023-03-07T05:40:59.368Z,58.59
2023-03-07T05:44:01.963Z,58.59
2023-03-07T05:47:05.978Z,58.34
2023-03-07T05:50:10.640Z,58.68
2023-03-07T05:53:13.092Z,58.71
2023-03-07T05:56:15.833Z,58.58
2023-03-07T05:59:18.429Z,58.40
2023-03-07T06:02:22.324Z,58.74
2023-03-07T06:05:25.575Z,58.35
2023-03-07T06:08:28.317Z,58.39
2023-03-07T06:11:30.806Z,58.60
2023-03-07T06:14:33.912Z,58.21
2023-03-07T06:17:40.540Z,58.49
2023-03-07T06:20:43.294Z,58.54
2023-03-07T06:23:46.141Z,59.05
2023-03-07T06:26:48.543Z,58.50
2023-03-07T06:29:51.288Z,58.42
2023-03-07T06:32:55.451Z,58.58
2023-03-07T06:35:58.426Z,58.69
2023-03-07T06:39:01.455Z,58.34
2023-03-07T06:42:04.117Z,58.71
2023-03-07T06:45:07.861Z,58.54
2023-03-07T06:48:11.724Z,58.71
2023-03-07T06:51:14.400Z,58.64
2023-03-07T06:54:17.342Z,58.58
2023-03-07T06:57:19.955Z,58.25
2023-03-07T07:00:24.085Z,58.50
2023-03-07T07:03:28.160Z,58.85
2023-03-07T07:06:31.077Z,59.06
2023-03-07T07:09:34.245Z,58.64
2023-03-07T07:12:40.441Z,58.42
2023-03-07T07:16:03.143Z,58.65
2023-03-07T07:23:49.216Z,58.61
2023-03-07T07:27:39.157Z,58.22
2023-03-07T07:30:41.818Z,58.62
2023-03-07T07:33:46.332Z,58.39
2023-03-07T07:36:50.351Z,58.49
2023-03-07T07:39:53.170Z,58.45
2023-03-07T07:42:55.720Z,58.45
2023-03-07T07:45:58.250Z,58.29
2023-03-07T07:49:00.799Z,58.06
2023-03-07T07:52:05.003Z,58.25
2023-03-07T07:55:08.045Z,58.28
2023-03-07T07:58:10.784Z,58.19
2023-03-07T08:01:15.123Z,58.40
2023-03-07T08:04:17.705Z,58.45
2023-03-07T08:07:23.317Z,58.46
2023-03-07T08:10:25.962Z,58.25
2023-03-07T08:13:28.494Z,58.46
2023-03-07T08:16:31.115Z,58.32
2023-03-07T08:19:33.785Z,58.53
2023-03-07T08:22:38.292Z,58.42
2023-03-07T08:25:40.968Z,58.07
2023-03-07T08:28:45.900Z,58.38
2023-03-07T08:31:51.361Z,58.71
2023-03-07T08:34:54.401Z,58.43
2023-03-07T08:38:00.825Z,58.54
2023-03-07T08:41:04.783Z,58.42
2023-03-07T08:44:07.595Z,58.50
2023-03-07T08:47:11.412Z,58.56
2023-03-07T08:50:14.270Z,58.61
2023-03-07T08:53:18.411Z,58.60
2023-03-07T08:56:22.030Z,58.70
2023-03-07T08:59:24.569Z,58.46
2023-03-07T09:02:27.176Z,58.39
2023-03-07T09:05:31.369Z,58.43
2023-03-07T09:08:36.817Z,58.24
2023-03-07T09:11:40.831Z,58.44
2023-03-07T09:14:43.389Z,58.34
2023-03-07T09:17:45.937Z,58.45
2023-03-07T09:20:48.467Z,58.72
2023-03-07T09:23:52.526Z,58.38
2023-03-07T09:26:55.460Z,58.33
2023-03-07T09:43:14.974Z,58.41
2023-03-07T09:46:35.804Z,58.50
2023-03-07T09:49:45.152Z,58.96
2023-03-07T09:52:48.084Z,58.55
2023-03-07T09:55:52.918Z,58.52
2023-03-07T09:59:40.062Z,58.57
2023-03-07T10:02:50.273Z,58.45
2023-03-07T10:05:57.414Z,58.50
2023-03-07T10:09:02.453Z,58.65
2023-03-07T10:12:27.019Z,58.46
2023-03-07T10:15:45.363Z,58.40
2023-03-07T10:19:03.509Z,58.29
2023-03-07T10:22:13.849Z,58.44
2023-03-07T10:25:25.299Z,58.63
2023-03-07T10:28:31.309Z,58.78
2023-03-07T10:31:39.371Z,58.37
2023-03-07T10:34:42.359Z,58.50
2023-03-07T10:37:51.608Z,58.75
2023-03-07T10:40:57.959Z,58.23
2023-03-07T10:44:00.742Z,58.63
2023-03-07T10:47:05.183Z,58.35
2023-03-07T10:50:25.807Z,58.61
2023-03-07T10:53:33.256Z,58.34
2023-03-07T10:56:35.729Z,58.57
2023-03-07T10:59:39.968Z,58.21
2023-03-07T11:02:48.772Z,58.43
2023-03-07T11:05:51.873Z,58.49
2023-03-07T11:08:56.191Z,58.54
2023-03-07T11:12:01.025Z,58.30
2023-03-07T11:15:12.527Z,58.44
2023-03-07T11:18:30.252Z,58.59
2023-03-07T11:21:34.724Z,58.45
2023-03-07T11:24:39.283Z,58.44
2023-03-07T11:27:49.377Z,58.57
2023-03-07T11:30:53.144Z,58.62
2023-03-07T11:34:06.591Z,58.64
2023-03-07T11:37:23.743Z,58.58
2023-03-07T11:40:29.578Z,58.38
2023-03-07T11:43:45.221Z,58.50
2023-03-07T11:47:11.148Z,58.49
2023-03-07T11:50:23.708Z,58.43
2023-03-07T11:53:35.768Z,58.41
2023-03-07T11:56:45.485Z,58.62
2023-03-07T12:00:04.636Z,58.36
2023-03-07T12:03:41.965Z,58.25
2023-03-07T12:06:53.854Z,58.18
2023-03-07T12:10:03.871Z,58.12
2023-03-07T12:13:12.442Z,58.53
2023-03-07T12:16:27.056Z,58.80
2023-03-07T12:19:51.528Z,58.51
2023-03-07T12:23:05.997Z,58.30
2023-03-07T12:26:16.911Z,58.48
2023-03-07T12:29:27.263Z,58.27
2023-03-07T12:32:32.916Z,58.27
2023-03-07T12:35:44.588Z,58.29
2023-03-07T12:38:52.686Z,58.27
2023-03-07T12:42:02.858Z,58.48
2023-03-07T12:45:11.786Z,58.54
2023-03-07T12:48:23.118Z,58.32
2023-03-07T12:51:28.684Z,58.14
2023-03-07T12:54:38.040Z,58.63
2023-03-07T12:57:44.101Z,58.45
2023-03-07T13:00:50.390Z,58.31
2023-03-07T13:03:58.035Z,58.36
2023-03-07T13:07:08.915Z,58.26
2023-03-07T13:10:19.633Z,58.57
2023-03-07T13:13:51.492Z,58.32
2023-03-07T13:16:54.781Z,58.34
2023-03-07T13:19:58.397Z,58.40
2023-03-07T13:23:11.986Z,58.45
2023-03-07T13:26:25.078Z,58.60
2023-03-07T13:30:12.230Z,58.70
2023-03-07T13:33:27.591Z,58.79
2023-03-07T13:36:35.828Z,59.04
2023-03-07T13:39:39.653Z,58.59
2023-03-07T13:42:47.853Z,58.98
2023-03-07T13:45:53.169Z,58.69
2023-03-07T13:49:01.823Z,58.86
2023-03-07T13:52:22.932Z,58.61
2023-03-07T13:55:31.426Z,58.67
2023-03-07T13:58:39.493Z,58.87
2023-03-07T14:01:46.697Z,58.62
2023-03-07T14:04:54.371Z,58.31
2023-03-07T14:07:59.012Z,58.34
2023-03-07T14:11:02.048Z,58.37
2023-03-07T14:14:28.820Z,58.33
2023-03-07T14:17:53.566Z,58.61
2023-03-07T14:21:02.124Z,58.50
2023-03-07T14:24:40.562Z,58.48
2023-03-07T14:27:52.776Z,58.41
2023-03-07T14:30:59.129Z,58.36
2023-03-07T14:34:03.867Z,58.49
2023-03-07T14:37:08.564Z,58.53
2023-03-07T14:40:31.624Z,58.61
2023-03-07T14:43:46.179Z,58.86
2023-03-07T14:47:02.345Z,58.66
2023-03-07T14:50:13.722Z,58.62
2023-03-07T14:53:21.574Z,58.74
2023-03-07T14:56:27.606Z,58.41
2023-03-07T14:59:30.315Z,58.68
2023-03-07T15:02:34.686Z,58.85
2023-03-07T15:05:38.709Z,58.39
2023-03-07T15:08:41.345Z,58.23
2023-03-07T15:11:49.684Z,58.72
2023-03-07T15:14:55.434Z,58.51
2023-03-07T15:18:03.952Z,58.78
2023-03-07T15:21:08.822Z,58.76
2023-03-07T15:24:18.233Z,58.44
2023-03-07T15:27:26.384Z,58.71
2023-03-07T15:30:32.113Z,58.66
2023-03-07T15:33:36.694Z,58.82
2023-03-07T15:36:39.553Z,58.67
2023-03-07T15:39:42.164Z,58.58
2023-03-07T15:42:55.656Z,58.53
2023-03-07T15:46:04.332Z,58.50
2023-03-07T15:49:18.184Z,58.59
2023-03-07T15:52:31.227Z,58.47
2023-03-07T15:55:34.435Z,58.53
2023-03-07T15:58:38.316Z,58.86
2023-03-07T16:01:41.325Z,58.67
2023-03-07T16:04:45.309Z,58.80
2023-03-07T16:07:49.242Z,58.61
2023-03-07T16:10:57.189Z,58.68
2023-03-07T16:14:00.305Z,58.55
2023-03-07T16:17:06.069Z,58.89
2023-03-07T16:20:16.269Z,58.66
2023-03-07T16:23:18.962Z,58.58
2023-03-07T16:26:24.258Z,58.77
2023-03-07T16:29:27.418Z,58.67
2023-03-07T16:32:29.959Z,58.97
2023-03-07T16:35:33.998Z,58.57
2023-03-07T16:38:36.563Z,58.77
2023-03-07T16:41:40.125Z,58.35
2023-03-07T16:44:42.595Z,58.51
2023-03-07T16:47:45.539Z,58.48
2023-03-07T16:50:50.016Z,58.74
2023-03-07T16:53:52.892Z,58.76
2023-03-07T16:56:58.484Z,58.58
2023-03-07T17:00:01.331Z,58.88
2023-03-07T17:03:04.548Z,58.90
2023-03-07T17:06:15.376Z,58.88
2023-03-07T17:09:17.957Z,58.76
2023-03-07T17:12:25.610Z,59.05
2023-03-07T17:15:31.353Z,58.86
2023-03-07T17:18:34.031Z,58.94
2023-03-07T17:21:37.951Z,58.45
2023-03-07T17:24:40.587Z,58.93
2023-03-07T17:27:47.642Z,58.67
2023-03-07T17:30:50.335Z,59.05
2023-03-07T17:33:52.958Z,58.89
2023-03-07T17:36:57.618Z,58.82
2023-03-07T17:40:00.591Z,59.11
2023-03-07T17:43:04.366Z,59.21
2023-03-07T17:46:09.992Z,59.14
2023-03-07T17:49:12.564Z,59.10
2023-03-07T17:52:16.380Z,58.87
2023-03-07T17:55:20.148Z,58.89
2023-03-07T17:58:22.514Z,58.86
2023-03-07T18:01:25.164Z,58.66
2023-03-07T18:04:30.527Z,59.04
2023-03-07T18:07:34.608Z,59.02
2023-03-07T18:10:37.272Z,58.87
2023-03-07T18:13:42.227Z,59.08
2023-03-07T18:16:44.869Z,58.83
2023-03-07T18:19:47.547Z,58.86
2023-03-07T18:22:51.516Z,59.15
2023-03-07T18:25:59.159Z,58.77
2023-03-07T18:29:02.171Z,58.94
2023-03-07T18:32:05.038Z,58.95
2023-03-07T18:35:10.122Z,58.87
2023-03-07T18:38:13.936Z,58.86
2023-03-07T18:41:18.695Z,58.74
2023-03-07T18:44:21.387Z,58.86
2023-03-07T18:47:24.059Z,58.75
2023-03-07T18:50:26.757Z,58.85
2023-03-07T18:53:31.202Z,59.07
2023-03-07T18:56:33.766Z,58.67
2023-03-07T18:59:36.395Z,58.84
2023-03-07T19:02:40.476Z,58.53
2023-03-07T19:05:43.705Z,59.08
2023-03-07T19:08:49.302Z,58.73
2023-03-07T19:11:52.270Z,58.68
2023-03-07T19:14:54.802Z,58.82
2023-03-07T19:17:57.483Z,58.83
2023-03-07T19:21:00.200Z,58.78
2023-03-07T19:24:06.037Z,58.82
2023-03-07T19:27:09.858Z,58.94
2023-03-07T19:30:15.217Z,58.86
2023-03-07T19:33:17.644Z,58.69
2023-03-07T19:36:22.947Z,58.52
2023-03-07T19:39:27.028Z,58.69
2023-03-07T19:42:29.945Z,58.94
2023-03-07T19:45:32.443Z,58.90
2023-03-07T19:48:35.095Z,58.67
2023-03-07T19:51:37.616Z,58.74
2023-03-07T19:54:41.676Z,58.89
2023-03-07T19:57:46.768Z,58.77
2023-03-07T20:00:49.550Z,58.72
2023-03-07T20:03:52.681Z,58.66
2023-03-07T20:06:55.235Z,58.58
2023-03-07T20:09:59.428Z,58.93
2023-03-07T20:13:01.920Z,58.57
2023-03-07T20:16:04.949Z,58.77
2023-03-07T20:19:09.635Z,58.92
2023-03-07T20:22:12.503Z,58.87
2023-03-07T20:25:16.688Z,58.57
2023-03-07T20:28:19.263Z,58.77
2023-03-07T20:31:22.687Z,58.97
2023-03-07T20:34:25.538Z,58.56
2023-03-07T20:37:28.346Z,58.80
2023-03-07T20:40:32.738Z,58.82
2023-03-07T20:43:35.706Z,58.49
2023-03-07T20:46:41.929Z,58.67
2023-03-07T20:49:44.538Z,58.53
2023-03-07T20:52:47.184Z,58.80
2023-03-07T20:55:51.331Z,58.74
2023-03-07T20:58:54.445Z,58.61
2023-03-07T21:01:56.975Z,58.71
2023-03-07T21:04:59.520Z,58.70
2023-03-07T21:08:02.350Z,59.06
2023-03-07T21:11:08.401Z,58.94
2023-03-07T21:14:10.840Z,58.77
2023-03-07T21:17:14.668Z,58.85
2023-03-07T21:20:17.909Z,59.03
2023-03-07T21:23:20.448Z,58.82
2023-03-07T21:26:26.478Z,58.83
2023-03-07T21:29:28.960Z,58.82
2023-03-07T21:32:31.435Z,58.88
2023-03-07T21:35:37.869Z,58.79
2023-03-07T21:38:41.605Z,58.96
2023-03-07T21:41:45.395Z,58.86
2023-03-07T21:44:47.833Z,58.84
2023-03-07T21:47:53.296Z,59.36
2023-03-07T21:50:55.859Z,59.14
2023-03-07T21:53:58.430Z,58.98
2023-03-07T21:57:05.066Z,59.00
2023-03-07T22:00:10.054Z,58.98
2023-03-07T22:03:12.539Z,58.94
2023-03-07T22:06:16.670Z,58.81
2023-03-07T22:09:21.003Z,58.93
2023-03-07T22:12:25.027Z,59.11
2023-03-07T22:15:27.803Z,58.92
2023-03-07T22:18:31.569Z,59.01
2023-03-07T22:21:34.045Z,59.19
2023-03-07T22:24:39.783Z,58.79
2023-03-07T22:27:45.323Z,59.06
2023-03-07T22:30:49.246Z,59.33
2023-03-07T22:33:53.202Z,59.13
2023-03-07T22:36:57.364Z,58.98
2023-03-07T22:40:00.171Z,59.16
2023-03-07T22:43:04.188Z,59.34
2023-03-07T22:46:07.648Z,58.97
2023-03-07T22:49:11.232Z,59.10
2023-03-07T22:52:14.142Z,59.25
2023-03-07T22:55:17.974Z,59.13
2023-03-07T22:58:22.030Z,59.24
2023-03-07T23:01:28.379Z,59.13
2023-03-07T23:04:31.279Z,59.40
2023-03-07T23:07:34.131Z,59.18
2023-03-07T23:10:36.703Z,59.49
2023-03-07T23:13:40.750Z,59.41
2023-03-07T23:16:45.155Z,59.11
2023-03-07T23:19:47.726Z,59.33
2023-03-07T23:22:50.218Z,59.18
2023-03-07T23:25:52.892Z,59.32
2023-03-07T23:28:59.059Z,58.96
2023-03-07T23:32:03.681Z,59.35
2023-03-07T23:35:07.593Z,59.13
2023-03-07T23:38:12.995Z,59.17
2023-03-07T23:41:15.786Z,59.17
2023-03-07T23:44:19.684Z,59.39
2023-03-07T23:47:22.179Z,59.42
2023-03-07T23:50:25.011Z,59.17
2023-03-07T23:53:27.478Z,59.06
2023-03-07T23:56:29.991Z,59.27
2023-03-07T23:59:33.880Z,59.00
